Dan Viking — OVIL2 — position and weather

sailwx.info

Track history (hours):
 
Tides and Currents Weather Stations Pressure Air Temp Water Temp Dewpoint Dewpoint Depression Visibility Wind Speed Wind Dir Waves Ship Positions

Dan Viking

Last reported at 2014-Jul-25 13:33 UTC. Time now 2014-Jul-25 13:45 UTC.
Position N 54°28' E 012°06'.

Length 79 m; draft 2.5 m.

Type: Cargo ship. MMSI: 220439000.

Date/timePositionNaut miles runAvg speedWind from/ knotsBaromVisibWave heightAir tempDewpointWater temp
2014-Jul-25 13:33N 54°28' E 012°06'8 8.0
2014-Jul-25 12:33N 54°20' E 012°08'8 8.2
2014-Jul-25 11:33N 54°12' E 012°05'3 3.0
2014-Jul-25 10:33N 54°09' E 012°07'0 0.0
2014-Jul-25 09:33N 54°09' E 012°07'0 0.0
2014-Jul-25 08:33N 54°09' E 012°07'0 0.0
2014-Jul-25 07:33N 54°09' E 012°07'0 0.0
2014-Jul-25 06:30N 54°09' E 012°07'0 0.0
2014-Jul-25 05:30N 54°09' E 012°07'0 0.0
2014-Jul-25 04:30N 54°09' E 012°07'0 0.0
2014-Jul-25 03:33N 54°09' E 012°07'0 0.0
2014-Jul-25 02:30N 54°09' E 012°07'0 0.0
2014-Jul-25 01:33N 54°09' E 012°07'0 0.0
2014-Jul-25 00:33N 54°09' E 012°07'0 0.0
2014-Jul-24 23:33N 54°09' E 012°07'0 0.0
2014-Jul-24 22:12N 54°09' E 012°07'0 0.0
2014-Jul-24 21:15N 54°09' E 012°07'0 0.0
2014-Jul-24 20:33N 54°09' E 012°07'2 2.0
2014-Jul-24 19:32N 54°11' E 012°05'8 8.0
2014-Jul-24 18:33N 54°18' E 012°02'9 9.0
2014-Jul-24 17:33N 54°26' E 012°09'9 9.1
2014-Jul-24 16:33N 54°35' E 012°14'9 8.6
2014-Jul-24 15:33N 54°42' E 012°22'9 8.7
2014-Jul-24 14:33N 54°50' E 012°29'9 8.6
2014-Jul-24 13:33N 54°58' E 012°35'8 7.7
2014-Jul-24 12:30N 55°05' E 012°26'8 8.3
2014-Jul-24 11:33N 55°09' E 012°15'5 1.5
2014-Jul-24 08:26N 55°13' E 012°10'0 0.0
2014-Jul-24 06:05N 55°13' E 012°10'0 0.0
2014-Jul-24 05:32N 55°13' E 012°10'0 0.0
2014-Jul-24 04:34N 55°13' E 012°10'4 3.8
2014-Jul-24 03:33N 55°10' E 012°15'8 8.0
2014-Jul-24 02:33N 55°05' E 012°25'8 8.3
2014-Jul-24 01:33N 54°59' E 012°35'10 8.9
2014-Jul-24 00:26N 54°50' E 012°29'8 8.8
2014-Jul-23 23:33N 54°43' E 012°24'9 8.5
2014-Jul-23 22:33N 54°35' E 012°19'9 8.7
2014-Jul-23 21:34N 54°26' E 012°14'9 8.5
2014-Jul-23 20:33N 54°24' E 011°60'9 8.7
2014-Jul-23 19:33N 54°20' E 011°46'9 8.6
2014-Jul-23 18:34N 54°16' E 011°34'9 9.2
2014-Jul-23 17:34N 54°10' E 011°20'9 8.9
2014-Jul-23 16:34N 54°05' E 011°09'3 0.2
2014-Jul-23 03:13N 54°08' E 011°12'5 7.7
2014-Jul-23 02:34N 54°11' E 011°19'8 7.6
2014-Jul-23 01:34N 54°15' E 011°29'7 7.4
2014-Jul-23 00:33N 54°19' E 011°41'8 8.0
2014-Jul-22 23:33N 54°23' E 011°52'8 7.7
2014-Jul-22 22:32N 54°26' E 012°05'7 7.4
2014-Jul-22 21:33N 54°32' E 012°11'8 8.1
2014-Jul-22 20:33N 54°39' E 012°17'8 8.1
2014-Jul-22 19:34N 54°46' E 012°25'8 8.0
2014-Jul-22 18:34N 54°53' E 012°33'7 6.7
2014-Jul-22 17:34N 54°59' E 012°35'7 7.1
2014-Jul-22 16:34N 55°04' E 012°26'7 7.4
2014-Jul-22 15:34N 55°09' E 012°17'2 0.2
2014-Jul-22 09:16N 55°10' E 012°14'7 9.2
2014-Jul-22 08:33N 55°06' E 012°23'9 8.9
2014-Jul-22 07:30N 54°60' E 012°36'8 8.6
2014-Jul-22 06:32N 54°52' E 012°31'8 8.5
2014-Jul-22 05:33N 54°45' E 012°25'8 8.0
2014-Jul-22 04:33N 54°37' E 012°21'9 8.7
2014-Jul-22 03:33N 54°29' E 012°16'7 7.5
2014-Jul-22 02:33N 54°24' E 012°06'8 8.3
2014-Jul-22 01:33N 54°24' E 011°52'8 7.8
2014-Jul-22 00:33N 54°27' E 011°39'8 8.5
2014-Jul-21 23:33N 54°30' E 011°26'8 7.9
2014-Jul-21 22:33N 54°34' E 011°13'25 0.6
2014-Jul-20 01:15N 54°33' E 010°30'5 6.3
2014-Jul-20 00:26N 54°35' E 010°39'5 6.2
2014-Jul-19 23:33N 54°35' E 010°48'6 6.4
2014-Jul-19 22:33N 54°36' E 010°59'6 6.0
2014-Jul-19 21:33N 54°36' E 011°10'7 6.8
2014-Jul-19 20:33N 54°34' E 011°20'6 6.5
2014-Jul-19 19:33N 54°31' E 011°31'6 6.4
2014-Jul-19 18:33N 54°29' E 011°41'7 7.0
2014-Jul-19 17:33N 54°27' E 011°53'7 7.4
2014-Jul-19 16:33N 54°27' E 012°05'7 6.9
2014-Jul-19 15:33N 54°33' E 012°12'7 7.4
2014-Jul-19 14:33N 54°39' E 012°17'7 7.5
2014-Jul-19 13:33N 54°46' E 012°24'8 7.5
2014-Jul-19 12:33N 54°52' E 012°30'7 7.2
2014-Jul-19 11:32N 54°59' E 012°35'7 7.4
2014-Jul-19 10:32N 55°05' E 012°27'7 7.0
2014-Jul-19 09:33N 55°09' E 012°17'6 2.5
2014-Jul-19 07:20N 55°13' E 012°10'0 0.0
2014-Jul-19 06:23N 55°13' E 012°10'0 0.0
2014-Jul-19 05:32N 55°13' E 012°10'0 0.0
2014-Jul-19 04:29N 55°13' E 012°10'0 0.0
2014-Jul-19 03:32N 55°13' E 012°10'0 0.0
2014-Jul-19 02:32N 55°13' E 012°10'0 0.0
2014-Jul-19 01:29N 55°13' E 012°10'0 0.0
2014-Jul-19 00:32N 55°13' E 012°10'0 0.0
2014-Jul-18 23:32N 55°13' E 012°10'0 0.0
2014-Jul-18 22:32N 55°13' E 012°10'0 0.0
2014-Jul-18 21:32N 55°13' E 012°10'0 0.0
2014-Jul-18 20:32N 55°13' E 012°10'0 0.0
2014-Jul-18 19:33N 55°13' E 012°10'6 6.2
2014-Jul-18 18:34N 55°09' E 012°18'9 9.3
2014-Jul-18 17:33N 55°03' E 012°31'9 8.9
2014-Jul-18 16:33N 54°55' E 012°33'10 9.6
2014-Jul-18 15:33N 54°46' E 012°26'10 9.6
2014-Jul-18 14:34N 54°37' E 012°20'10 9.6
2014-Jul-18 13:33N 54°28' E 012°14'9 9.2
2014-Jul-18 12:34N 54°21' E 012°06'9 8.6
2014-Jul-18 11:34N 54°12' E 012°05'3 2.7
2014-Jul-18 10:28N 54°09' E 012°07'0 0.0
2014-Jul-18 09:28N 54°09' E 012°07'0 0.0
2014-Jul-18 08:31N 54°09' E 012°07'0 0.0
2014-Jul-18 07:28N 54°09' E 012°07'0 0.0
2014-Jul-18 06:28N 54°09' E 012°07'0 0.0
2014-Jul-18 05:31N 54°09' E 012°07'0 0.0
2014-Jul-18 04:28N 54°09' E 012°07'0 0.0
2014-Jul-18 03:10N 54°09' E 012°07'0 0.0
2014-Jul-18 02:31N 54°09' E 012°07'0 0.0
2014-Jul-18 01:28N 54°09' E 012°07'0 0.0
2014-Jul-18 00:31N 54°09' E 012°07'0 0.0
2014-Jul-17 23:31N 54°09' E 012°07'0 0.3
2014-Jul-17 22:33N 54°09' E 012°06'7 7.0
2014-Jul-17 21:33N 54°16' E 012°02'8 8.0
2014-Jul-17 20:34N 54°23' E 012°07'8 8.4
2014-Jul-17 19:33N 54°31' E 012°12'9 8.4
2014-Jul-17 18:33N 54°39' E 012°17'9 8.4
2014-Jul-17 17:27N 54°47' E 012°25'15 7.6
2014-Jul-17 15:25N 55°02' E 012°34'7 8.1
2014-Jul-17 14:33N 55°06' E 012°24'11 1.1
2014-Jul-17 05:04N 55°13' E 012°10'3 0.9
2014-Jul-17 02:16N 55°11' E 012°13'6 8.0
2014-Jul-17 01:33N 55°07' E 012°21'9 8.9
2014-Jul-17 00:33N 55°01' E 012°32'8 7.8
2014-Jul-16 23:31N 54°53' E 012°33'8 8.8
2014-Jul-16 22:33N 54°46' E 012°27'9 9.0
2014-Jul-16 21:33N 54°37' E 012°21'9 9.3
2014-Jul-16 20:33N 54°29' E 012°15'9 8.6
2014-Jul-16 19:33N 54°24' E 012°02'7 7.2
2014-Jul-16 18:33N 54°21' E 011°52'9 8.8
2014-Jul-16 17:33N 54°16' E 011°39'10 9.7
2014-Jul-16 16:33N 54°11' E 011°25'9 9.4
2014-Jul-16 15:33N 54°06' E 011°11'3 0.2
2014-Jul-16 01:29N 54°09' E 011°13'6 6.8
2014-Jul-16 00:33N 54°13' E 011°22'7 6.9
2014-Jul-15 23:33N 54°16' E 011°33'7 6.8
2014-Jul-15 22:33N 54°20' E 011°43'7 6.8
2014-Jul-15 21:33N 54°23' E 011°53'7 7.1
2014-Jul-15 20:33N 54°27' E 012°03'6 6.2
2014-Jul-15 19:33N 54°30' E 012°12'8 7.6
2014-Jul-15 18:33N 54°38' E 012°16'8 7.6
2014-Jul-15 17:33N 54°44' E 012°22'  
Track history (hours):
 
Tides and Currents Weather Stations Pressure Air Temp Water Temp Dewpoint Dewpoint Depression Visibility Wind Speed Wind Dir Waves Ship Positions

Dan Viking

Last reported at 2014-Jul-25 13:33 UTC. Time now 2014-Jul-25 13:45 UTC.
Position N 54°28' E 012°06'.

Length 79 m; draft 2.5 m.

Type: Cargo ship. MMSI: 220439000.

Date/timePositionNaut miles runAvg speedWind from/ knotsBaromVisibWave heightAir tempDewpointWater temp
2014-Jul-25 13:33N 54°28' E 012°06'8 8.0
2014-Jul-25 12:33N 54°20' E 012°08'8 8.2
2014-Jul-25 11:33N 54°12' E 012°05'3 3.0
2014-Jul-25 10:33N 54°09' E 012°07'0 0.0
2014-Jul-25 09:33N 54°09' E 012°07'0 0.0
2014-Jul-25 08:33N 54°09' E 012°07'0 0.0
2014-Jul-25 07:33N 54°09' E 012°07'0 0.0
2014-Jul-25 06:30N 54°09' E 012°07'0 0.0
2014-Jul-25 05:30N 54°09' E 012°07'0 0.0
2014-Jul-25 04:30N 54°09' E 012°07'0 0.0
2014-Jul-25 03:33N 54°09' E 012°07'0 0.0
2014-Jul-25 02:30N 54°09' E 012°07'0 0.0
2014-Jul-25 01:33N 54°09' E 012°07'0 0.0
2014-Jul-25 00:33N 54°09' E 012°07'0 0.0
2014-Jul-24 23:33N 54°09' E 012°07'0 0.0
2014-Jul-24 22:12N 54°09' E 012°07'0 0.0
2014-Jul-24 21:15N 54°09' E 012°07'0 0.0
2014-Jul-24 20:33N 54°09' E 012°07'2 2.0
2014-Jul-24 19:32N 54°11' E 012°05'8 8.0
2014-Jul-24 18:33N 54°18' E 012°02'9 9.0
2014-Jul-24 17:33N 54°26' E 012°09'9 9.1
2014-Jul-24 16:33N 54°35' E 012°14'9 8.6
2014-Jul-24 15:33N 54°42' E 012°22'9 8.7
2014-Jul-24 14:33N 54°50' E 012°29'9 8.6
2014-Jul-24 13:33N 54°58' E 012°35'8 7.7
2014-Jul-24 12:30N 55°05' E 012°26'8 8.3
2014-Jul-24 11:33N 55°09' E 012°15'5 1.5
2014-Jul-24 08:26N 55°13' E 012°10'0 0.0
2014-Jul-24 06:05N 55°13' E 012°10'0 0.0
2014-Jul-24 05:32N 55°13' E 012°10'0 0.0
2014-Jul-24 04:34N 55°13' E 012°10'4 3.8
2014-Jul-24 03:33N 55°10' E 012°15'8 8.0
2014-Jul-24 02:33N 55°05' E 012°25'8 8.3
2014-Jul-24 01:33N 54°59' E 012°35'10 8.9
2014-Jul-24 00:26N 54°50' E 012°29'8 8.8
2014-Jul-23 23:33N 54°43' E 012°24'9 8.5
2014-Jul-23 22:33N 54°35' E 012°19'9 8.7
2014-Jul-23 21:34N 54°26' E 012°14'9 8.5
2014-Jul-23 20:33N 54°24' E 011°60'9 8.7
2014-Jul-23 19:33N 54°20' E 011°46'9 8.6
2014-Jul-23 18:34N 54°16' E 011°34'9 9.2
2014-Jul-23 17:34N 54°10' E 011°20'9 8.9
2014-Jul-23 16:34N 54°05' E 011°09'3 0.2
2014-Jul-23 03:13N 54°08' E 011°12'5 7.7
2014-Jul-23 02:34N 54°11' E 011°19'8 7.6
2014-Jul-23 01:34N 54°15' E 011°29'7 7.4
2014-Jul-23 00:33N 54°19' E 011°41'8 8.0
2014-Jul-22 23:33N 54°23' E 011°52'8 7.7
2014-Jul-22 22:32N 54°26' E 012°05'7 7.4
2014-Jul-22 21:33N 54°32' E 012°11'8 8.1
2014-Jul-22 20:33N 54°39' E 012°17'8 8.1
2014-Jul-22 19:34N 54°46' E 012°25'8 8.0
2014-Jul-22 18:34N 54°53' E 012°33'7 6.7
2014-Jul-22 17:34N 54°59' E 012°35'7 7.1
2014-Jul-22 16:34N 55°04' E 012°26'7 7.4
2014-Jul-22 15:34N 55°09' E 012°17'2 0.2
2014-Jul-22 09:16N 55°10' E 012°14'7 9.2
2014-Jul-22 08:33N 55°06' E 012°23'9 8.9
2014-Jul-22 07:30N 54°60' E 012°36'8 8.6
2014-Jul-22 06:32N 54°52' E 012°31'8 8.5
2014-Jul-22 05:33N 54°45' E 012°25'8 8.0
2014-Jul-22 04:33N 54°37' E 012°21'9 8.7
2014-Jul-22 03:33N 54°29' E 012°16'7 7.5
2014-Jul-22 02:33N 54°24' E 012°06'8 8.3
2014-Jul-22 01:33N 54°24' E 011°52'8 7.8
2014-Jul-22 00:33N 54°27' E 011°39'8 8.5
2014-Jul-21 23:33N 54°30' E 011°26'8 7.9
2014-Jul-21 22:33N 54°34' E 011°13'25 0.6
2014-Jul-20 01:15N 54°33' E 010°30'5 6.3
2014-Jul-20 00:26N 54°35' E 010°39'5 6.2
2014-Jul-19 23:33N 54°35' E 010°48'6 6.4
2014-Jul-19 22:33N 54°36' E 010°59'6 6.0
2014-Jul-19 21:33N 54°36' E 011°10'7 6.8
2014-Jul-19 20:33N 54°34' E 011°20'6 6.5
2014-Jul-19 19:33N 54°31' E 011°31'6 6.4
2014-Jul-19 18:33N 54°29' E 011°41'7 7.0
2014-Jul-19 17:33N 54°27' E 011°53'7 7.4
2014-Jul-19 16:33N 54°27' E 012°05'7 6.9
2014-Jul-19 15:33N 54°33' E 012°12'7 7.4
2014-Jul-19 14:33N 54°39' E 012°17'7 7.5
2014-Jul-19 13:33N 54°46' E 012°24'8 7.5
2014-Jul-19 12:33N 54°52' E 012°30'7 7.2
2014-Jul-19 11:32N 54°59' E 012°35'7 7.4
2014-Jul-19 10:32N 55°05' E 012°27'7 7.0
2014-Jul-19 09:33N 55°09' E 012°17'6 2.5
2014-Jul-19 07:20N 55°13' E 012°10'0 0.0
2014-Jul-19 06:23N 55°13' E 012°10'0 0.0
2014-Jul-19 05:32N 55°13' E 012°10'0 0.0
2014-Jul-19 04:29N 55°13' E 012°10'0 0.0
2014-Jul-19 03:32N 55°13' E 012°10'0 0.0
2014-Jul-19 02:32N 55°13' E 012°10'0 0.0
2014-Jul-19 01:29N 55°13' E 012°10'0 0.0
2014-Jul-19 00:32N 55°13' E 012°10'0 0.0
2014-Jul-18 23:32N 55°13' E 012°10'0 0.0
2014-Jul-18 22:32N 55°13' E 012°10'0 0.0
2014-Jul-18 21:32N 55°13' E 012°10'0 0.0
2014-Jul-18 20:32N 55°13' E 012°10'0 0.0
2014-Jul-18 19:33N 55°13' E 012°10'6 6.2
2014-Jul-18 18:34N 55°09' E 012°18'9 9.3
2014-Jul-18 17:33N 55°03' E 012°31'9 8.9
2014-Jul-18 16:33N 54°55' E 012°33'10 9.6
2014-Jul-18 15:33N 54°46' E 012°26'10 9.6
2014-Jul-18 14:34N 54°37' E 012°20'10 9.6
2014-Jul-18 13:33N 54°28' E 012°14'9 9.2
2014-Jul-18 12:34N 54°21' E 012°06'9 8.6
2014-Jul-18 11:34N 54°12' E 012°05'3 2.7
2014-Jul-18 10:28N 54°09' E 012°07'0 0.0
2014-Jul-18 09:28N 54°09' E 012°07'0 0.0
2014-Jul-18 08:31N 54°09' E 012°07'0 0.0
2014-Jul-18 07:28N 54°09' E 012°07'0 0.0
2014-Jul-18 06:28N 54°09' E 012°07'0 0.0
2014-Jul-18 05:31N 54°09' E 012°07'0 0.0
2014-Jul-18 04:28N 54°09' E 012°07'0 0.0
2014-Jul-18 03:10N 54°09' E 012°07'0 0.0
2014-Jul-18 02:31N 54°09' E 012°07'0 0.0
2014-Jul-18 01:28N 54°09' E 012°07'0 0.0
2014-Jul-18 00:31N 54°09' E 012°07'0 0.0
2014-Jul-17 23:31N 54°09' E 012°07'0 0.3
2014-Jul-17 22:33N 54°09' E 012°06'7 7.0
2014-Jul-17 21:33N 54°16' E 012°02'8 8.0
2014-Jul-17 20:34N 54°23' E 012°07'8 8.4
2014-Jul-17 19:33N 54°31' E 012°12'9 8.4
2014-Jul-17 18:33N 54°39' E 012°17'9 8.4
2014-Jul-17 17:27N 54°47' E 012°25'15 7.6
2014-Jul-17 15:25N 55°02' E 012°34'7 8.1
2014-Jul-17 14:33N 55°06' E 012°24'11 1.1
2014-Jul-17 05:04N 55°13' E 012°10'3 0.9
2014-Jul-17 02:16N 55°11' E 012°13'6 8.0
2014-Jul-17 01:33N 55°07' E 012°21'9 8.9
2014-Jul-17 00:33N 55°01' E 012°32'8 7.8
2014-Jul-16 23:31N 54°53' E 012°33'8 8.8
2014-Jul-16 22:33N 54°46' E 012°27'9 9.0
2014-Jul-16 21:33N 54°37' E 012°21'9 9.3
2014-Jul-16 20:33N 54°29' E 012°15'9 8.6
2014-Jul-16 19:33N 54°24' E 012°02'7 7.2
2014-Jul-16 18:33N 54°21' E 011°52'9 8.8
2014-Jul-16 17:33N 54°16' E 011°39'10 9.7
2014-Jul-16 16:33N 54°11' E 011°25'9 9.4
2014-Jul-16 15:33N 54°06' E 011°11'3 0.2
2014-Jul-16 01:29N 54°09' E 011°13'6 6.8
2014-Jul-16 00:33N 54°13' E 011°22'7 6.9
2014-Jul-15 23:33N 54°16' E 011°33'7 6.8
2014-Jul-15 22:33N 54°20' E 011°43'7 6.8
2014-Jul-15 21:33N 54°23' E 011°53'7 7.1
2014-Jul-15 20:33N 54°27' E 012°03'6 6.2
2014-Jul-15 19:33N 54°30' E 012°12'8 7.6
2014-Jul-15 18:33N 54°38' E 012°16'8 7.6
2014-Jul-15 17:33N 54°44' E 012°22'  

Dump ship's entire track history